sensor_id;sensor_type;location;lat;lon;timestamp;P1;durP1;ratioP1;P2;durP2;ratioP2
12871;SDS011;6504;53.766;9.626;2023-10-19T00:02:18;9.53;;;7.60;;
12871;SDS011;6504;53.766;9.626;2023-10-19T00:04:46;8.70;;;7.90;;
12871;SDS011;6504;53.766;9.626;2023-10-19T00:07:15;8.60;;;7.80;;
12871;SDS011;6504;53.766;9.626;2023-10-19T00:09:42;8.87;;;7.97;;
12871;SDS011;6504;53.766;9.626;2023-10-19T00:12:14;8.53;;;7.73;;
12871;SDS011;6504;53.766;9.626;2023-10-19T00:14:42;8.90;;;8.00;;
12871;SDS011;6504;53.766;9.626;2023-10-19T00:17:12;9.27;;;8.37;;
12871;SDS011;6504;53.766;9.626;2023-10-19T00:19:41;9.60;;;8.67;;
12871;SDS011;6504;53.766;9.626;2023-10-19T00:22:25;9.67;;;8.77;;
12871;SDS011;6504;53.766;9.626;2023-10-19T00:24:57;9.40;;;8.43;;
12871;SDS011;6504;53.766;9.626;2023-10-19T00:27:25;9.40;;;8.50;;
12871;SDS011;6504;53.766;9.626;2023-10-19T00:29:53;10.03;;;9.13;;
12871;SDS011;6504;53.766;9.626;2023-10-19T00:32:32;9.17;;;8.27;;
12871;SDS011;6504;53.766;9.626;2023-10-19T00:35:05;10.13;;;8.80;;
12871;SDS011;6504;53.766;9.626;2023-10-19T00:37:55;9.60;;;8.73;;
12871;SDS011;6504;53.766;9.626;2023-10-19T00:40:49;10.07;;;9.10;;
12871;SDS011;6504;53.766;9.626;2023-10-19T00:43:26;10.80;;;9.50;;
12871;SDS011;6504;53.766;9.626;2023-10-19T00:46:00;9.63;;;8.73;;
12871;SDS011;6504;53.766;9.626;2023-10-19T00:48:36;10.57;;;9.57;;
12871;SDS011;6504;53.766;9.626;2023-10-19T00:51:06;9.57;;;8.67;;
12871;SDS011;6504;53.766;9.626;2023-10-19T00:53:38;10.67;;;9.63;;
12871;SDS011;6504;53.766;9.626;2023-10-19T00:56:08;10.97;;;9.50;;
12871;SDS011;6504;53.766;9.626;2023-10-19T00:58:37;10.60;;;9.60;;
12871;SDS011;6504;53.766;9.626;2023-10-19T01:01:07;11.07;;;9.87;;
12871;SDS011;6504;53.766;9.626;2023-10-19T01:03:36;10.20;;;9.10;;
12871;SDS011;6504;53.766;9.626;2023-10-19T01:06:05;10.53;;;9.53;;
12871;SDS011;6504;53.766;9.626;2023-10-19T01:08:40;10.20;;;9.23;;
12871;SDS011;6504;53.766;9.626;2023-10-19T01:11:09;10.40;;;9.30;;
12871;SDS011;6504;53.766;9.626;2023-10-19T01:13:41;11.30;;;10.23;;
12871;SDS011;6504;53.766;9.626;2023-10-19T01:16:13;10.60;;;9.50;;
12871;SDS011;6504;53.766;9.626;2023-10-19T01:18:49;10.27;;;9.23;;
12871;SDS011;6504;53.766;9.626;2023-10-19T01:21:21;11.40;;;9.80;;
12871;SDS011;6504;53.766;9.626;2023-10-19T01:23:55;10.47;;;9.47;;
12871;SDS011;6504;53.766;9.626;2023-10-19T01:26:23;10.53;;;9.43;;
12871;SDS011;6504;53.766;9.626;2023-10-19T01:28:53;10.60;;;9.43;;
12871;SDS011;6504;53.766;9.626;2023-10-19T01:31:27;11.23;;;10.13;;
12871;SDS011;6504;53.766;9.626;2023-10-19T01:34:04;11.57;;;10.23;;
12871;SDS011;6504;53.766;9.626;2023-10-19T01:36:33;13.73;;;9.87;;
12871;SDS011;6504;53.766;9.626;2023-10-19T01:39:11;11.00;;;9.90;;
12871;SDS011;6504;53.766;9.626;2023-10-19T01:41:38;12.57;;;9.50;;
12871;SDS011;6504;53.766;9.626;2023-10-19T01:44:08;11.83;;;9.60;;
12871;SDS011;6504;53.766;9.626;2023-10-19T01:46:40;10.63;;;9.50;;
12871;SDS011;6504;53.766;9.626;2023-10-19T01:49:10;10.80;;;9.27;;
12871;SDS011;6504;53.766;9.626;2023-10-19T01:51:37;11.57;;;9.77;;
12871;SDS011;6504;53.766;9.626;2023-10-19T01:54:06;13.00;;;9.93;;
12871;SDS011;6504;53.766;9.626;2023-10-19T01:56:35;12.07;;;10.20;;
12871;SDS011;6504;53.766;9.626;2023-10-19T01:59:05;11.20;;;10.10;;
12871;SDS011;6504;53.766;9.626;2023-10-19T02:01:34;12.07;;;10.73;;
12871;SDS011;6504;53.766;9.626;2023-10-19T02:04:04;12.37;;;9.43;;
12871;SDS011;6504;53.766;9.626;2023-10-19T02:06:33;13.33;;;10.57;;
12871;SDS011;6504;53.766;9.626;2023-10-19T02:09:04;11.30;;;10.10;;
12871;SDS011;6504;53.766;9.626;2023-10-19T02:11:49;10.90;;;9.67;;
12871;SDS011;6504;53.766;9.626;2023-10-19T02:14:19;10.57;;;9.47;;
12871;SDS011;6504;53.766;9.626;2023-10-19T02:16:47;10.40;;;9.33;;
12871;SDS011;6504;53.766;9.626;2023-10-19T02:19:19;10.67;;;9.53;;
12871;SDS011;6504;53.766;9.626;2023-10-19T02:21:47;10.77;;;9.73;;
12871;SDS011;6504;53.766;9.626;2023-10-19T02:24:15;11.10;;;9.93;;
12871;SDS011;6504;53.766;9.626;2023-10-19T02:26:42;10.70;;;9.70;;
12871;SDS011;6504;53.766;9.626;2023-10-19T02:29:14;11.23;;;10.13;;
12871;SDS011;6504;53.766;9.626;2023-10-19T02:31:42;10.70;;;9.60;;
12871;SDS011;6504;53.766;9.626;2023-10-19T02:34:11;10.63;;;9.67;;
12871;SDS011;6504;53.766;9.626;2023-10-19T02:36:42;10.63;;;9.27;;
12871;SDS011;6504;53.766;9.626;2023-10-19T02:39:12;12.30;;;10.33;;
12871;SDS011;6504;53.766;9.626;2023-10-19T02:41:41;10.83;;;9.70;;
12871;SDS011;6504;53.766;9.626;2023-10-19T02:44:11;11.40;;;10.20;;
12871;SDS011;6504;53.766;9.626;2023-10-19T02:46:48;12.73;;;9.83;;
12871;SDS011;6504;53.766;9.626;2023-10-19T02:49:19;11.73;;;10.33;;
12871;SDS011;6504;53.766;9.626;2023-10-19T02:51:49;13.07;;;10.33;;
12871;SDS011;6504;53.766;9.626;2023-10-19T02:54:19;11.50;;;10.30;;
12871;SDS011;6504;53.766;9.626;2023-10-19T02:56:49;11.87;;;10.67;;
12871;SDS011;6504;53.766;9.626;2023-10-19T02:59:20;13.97;;;10.27;;
12871;SDS011;6504;53.766;9.626;2023-10-19T03:01:50;11.53;;;10.33;;
12871;SDS011;6504;53.766;9.626;2023-10-19T03:04:21;10.80;;;9.70;;
12871;SDS011;6504;53.766;9.626;2023-10-19T03:06:48;13.43;;;10.40;;
12871;SDS011;6504;53.766;9.626;2023-10-19T03:09:18;11.97;;;10.77;;
12871;SDS011;6504;53.766;9.626;2023-10-19T03:11:54;11.63;;;10.43;;
12871;SDS011;6504;53.766;9.626;2023-10-19T03:14:26;10.20;;;9.20;;
12871;SDS011;6504;53.766;9.626;2023-10-19T03:16:55;10.97;;;9.87;;
12871;SDS011;6504;53.766;9.626;2023-10-19T03:19:26;10.87;;;9.77;;
12871;SDS011;6504;53.766;9.626;2023-10-19T03:21:54;13.50;;;11.00;;
12871;SDS011;6504;53.766;9.626;2023-10-19T03:24:26;11.07;;;9.93;;
12871;SDS011;6504;53.766;9.626;2023-10-19T03:27:02;12.87;;;9.80;;
12871;SDS011;6504;53.766;9.626;2023-10-19T03:29:39;12.37;;;10.80;;
12871;SDS011;6504;53.766;9.626;2023-10-19T03:32:14;10.77;;;9.67;;
12871;SDS011;6504;53.766;9.626;2023-10-19T03:34:43;11.87;;;9.87;;
12871;SDS011;6504;53.766;9.626;2023-10-19T03:37:14;11.20;;;10.03;;
12871;SDS011;6504;53.766;9.626;2023-10-19T03:39:46;12.83;;;11.23;;
12871;SDS011;6504;53.766;9.626;2023-10-19T03:42:14;13.03;;;11.63;;
12871;SDS011;6504;53.766;9.626;2023-10-19T03:44:43;13.23;;;11.10;;
12871;SDS011;6504;53.766;9.626;2023-10-19T03:47:17;11.33;;;10.13;;
12871;SDS011;6504;53.766;9.626;2023-10-19T03:49:48;11.83;;;10.67;;
12871;SDS011;6504;53.766;9.626;2023-10-19T03:52:17;14.07;;;11.70;;
12871;SDS011;6504;53.766;9.626;2023-10-19T03:54:48;18.73;;;11.27;;
12871;SDS011;6504;53.766;9.626;2023-10-19T03:57:17;12.83;;;11.53;;
12871;SDS011;6504;53.766;9.626;2023-10-19T03:59:51;12.67;;;10.73;;
12871;SDS011;6504;53.766;9.626;2023-10-19T04:02:25;13.10;;;11.80;;
12871;SDS011;6504;53.766;9.626;2023-10-19T04:04:56;12.53;;;11.33;;
12871;SDS011;6504;53.766;9.626;2023-10-19T04:07:25;13.10;;;11.60;;
12871;SDS011;6504;53.766;9.626;2023-10-19T04:09:58;13.33;;;11.97;;
12871;SDS011;6504;53.766;9.626;2023-10-19T04:12:36;13.73;;;11.73;;
12871;SDS011;6504;53.766;9.626;2023-10-19T04:15:08;14.00;;;12.03;;
12871;SDS011;6504;53.766;9.626;2023-10-19T04:17:41;13.37;;;11.97;;
12871;SDS011;6504;53.766;9.626;2023-10-19T04:20:11;13.00;;;11.67;;
12871;SDS011;6504;53.766;9.626;2023-10-19T04:23:08;12.77;;;11.47;;
12871;SDS011;6504;53.766;9.626;2023-10-19T04:25:42;12.73;;;11.43;;
12871;SDS011;6504;53.766;9.626;2023-10-19T04:28:13;13.07;;;11.67;;
12871;SDS011;6504;53.766;9.626;2023-10-19T04:30:41;13.13;;;11.73;;
12871;SDS011;6504;53.766;9.626;2023-10-19T04:33:11;12.37;;;11.17;;
12871;SDS011;6504;53.766;9.626;2023-10-19T04:35:42;13.30;;;11.90;;
12871;SDS011;6504;53.766;9.626;2023-10-19T04:38:12;16.00;;;11.97;;
12871;SDS011;6504;53.766;9.626;2023-10-19T04:40:40;17.97;;;12.83;;
12871;SDS011;6504;53.766;9.626;2023-10-19T04:43:08;15.43;;;12.53;;
12871;SDS011;6504;53.766;9.626;2023-10-19T04:45:39;15.07;;;12.23;;
12871;SDS011;6504;53.766;9.626;2023-10-19T04:48:07;14.10;;;12.20;;
12871;SDS011;6504;53.766;9.626;2023-10-19T04:50:38;13.70;;;12.27;;
12871;SDS011;6504;53.766;9.626;2023-10-19T04:53:06;13.03;;;11.70;;
12871;SDS011;6504;53.766;9.626;2023-10-19T04:55:34;13.10;;;11.70;;
12871;SDS011;6504;53.766;9.626;2023-10-19T04:58:02;15.20;;;13.20;;
12871;SDS011;6504;53.766;9.626;2023-10-19T05:00:32;14.13;;;12.63;;
12871;SDS011;6504;53.766;9.626;2023-10-19T05:03:00;14.90;;;12.50;;
12871;SDS011;6504;53.766;9.626;2023-10-19T05:05:28;16.60;;;13.33;;
12871;SDS011;6504;53.766;9.626;2023-10-19T05:07:57;14.30;;;11.93;;
12871;SDS011;6504;53.766;9.626;2023-10-19T05:10:26;14.60;;;12.00;;
12871;SDS011;6504;53.766;9.626;2023-10-19T05:12:55;13.47;;;12.07;;
12871;SDS011;6504;53.766;9.626;2023-10-19T05:15:23;14.10;;;12.70;;
12871;SDS011;6504;53.766;9.626;2023-10-19T05:17:51;15.93;;;13.07;;
12871;SDS011;6504;53.766;9.626;2023-10-19T05:20:19;14.57;;;12.33;;
12871;SDS011;6504;53.766;9.626;2023-10-19T05:22:48;14.77;;;13.10;;
12871;SDS011;6504;53.766;9.626;2023-10-19T05:25:17;14.20;;;12.80;;
12871;SDS011;6504;53.766;9.626;2023-10-19T05:27:45;14.30;;;12.90;;
12871;SDS011;6504;53.766;9.626;2023-10-19T05:30:14;13.83;;;12.40;;
12871;SDS011;6504;53.766;9.626;2023-10-19T05:32:42;15.90;;;12.70;;
12871;SDS011;6504;53.766;9.626;2023-10-19T05:35:12;14.93;;;12.37;;
12871;SDS011;6504;53.766;9.626;2023-10-19T05:37:49;15.33;;;13.23;;
12871;SDS011;6504;53.766;9.626;2023-10-19T05:40:18;17.27;;;12.70;;
12871;SDS011;6504;53.766;9.626;2023-10-19T05:42:46;14.30;;;12.90;;
12871;SDS011;6504;53.766;9.626;2023-10-19T05:45:14;14.37;;;12.57;;
12871;SDS011;6504;53.766;9.626;2023-10-19T05:47:43;16.00;;;14.30;;
12871;SDS011;6504;53.766;9.626;2023-10-19T05:50:11;15.10;;;13.10;;
12871;SDS011;6504;53.766;9.626;2023-10-19T05:52:41;14.73;;;13.30;;
12871;SDS011;6504;53.766;9.626;2023-10-19T05:55:10;14.57;;;13.07;;
12871;SDS011;6504;53.766;9.626;2023-10-19T05:57:40;14.90;;;12.90;;
12871;SDS011;6504;53.766;9.626;2023-10-19T06:00:08;15.03;;;13.43;;
12871;SDS011;6504;53.766;9.626;2023-10-19T06:02:41;14.87;;;13.30;;
12871;SDS011;6504;53.766;9.626;2023-10-19T06:05:12;14.17;;;12.70;;
12871;SDS011;6504;53.766;9.626;2023-10-19T06:07:42;16.40;;;14.60;;
12871;SDS011;6504;53.766;9.626;2023-10-19T06:10:14;15.20;;;13.50;;
12871;SDS011;6504;53.766;9.626;2023-10-19T06:12:49;16.40;;;12.90;;
12871;SDS011;6504;53.766;9.626;2023-10-19T06:15:18;15.93;;;13.57;;
12871;SDS011;6504;53.766;9.626;2023-10-19T06:17:48;14.77;;;13.17;;
12871;SDS011;6504;53.766;9.626;2023-10-19T06:20:17;15.03;;;13.43;;
12871;SDS011;6504;53.766;9.626;2023-10-19T06:22:51;17.40;;;14.43;;
12871;SDS011;6504;53.766;9.626;2023-10-19T06:25:20;15.10;;;13.50;;
12871;SDS011;6504;53.766;9.626;2023-10-19T06:27:51;16.07;;;13.63;;
12871;SDS011;6504;53.766;9.626;2023-10-19T06:30:23;14.70;;;13.17;;
12871;SDS011;6504;53.766;9.626;2023-10-19T06:32:52;16.10;;;13.53;;
12871;SDS011;6504;53.766;9.626;2023-10-19T06:35:22;15.47;;;12.90;;
12871;SDS011;6504;53.766;9.626;2023-10-19T06:37:50;15.17;;;13.57;;
12871;SDS011;6504;53.766;9.626;2023-10-19T06:40:21;15.33;;;13.33;;
12871;SDS011;6504;53.766;9.626;2023-10-19T06:42:51;14.43;;;12.67;;
12871;SDS011;6504;53.766;9.626;2023-10-19T06:45:19;14.87;;;13.27;;
12871;SDS011;6504;53.766;9.626;2023-10-19T06:47:48;14.17;;;12.70;;
12871;SDS011;6504;53.766;9.626;2023-10-19T06:50:17;15.00;;;13.40;;
12871;SDS011;6504;53.766;9.626;2023-10-19T06:52:47;15.17;;;13.60;;
12871;SDS011;6504;53.766;9.626;2023-10-19T06:55:17;14.23;;;12.73;;
12871;SDS011;6504;53.766;9.626;2023-10-19T06:57:46;14.47;;;12.83;;
12871;SDS011;6504;53.766;9.626;2023-10-19T07:00:17;14.47;;;12.97;;
12871;SDS011;6504;53.766;9.626;2023-10-19T07:02:48;13.97;;;11.83;;
12871;SDS011;6504;53.766;9.626;2023-10-19T07:05:18;14.30;;;12.83;;
12871;SDS011;6504;53.766;9.626;2023-10-19T07:07:48;14.60;;;12.07;;
12871;SDS011;6504;53.766;9.626;2023-10-19T07:10:18;15.27;;;13.63;;
12871;SDS011;6504;53.766;9.626;2023-10-19T07:12:47;15.33;;;13.30;;
12871;SDS011;6504;53.766;9.626;2023-10-19T07:15:17;15.37;;;13.67;;
12871;SDS011;6504;53.766;9.626;2023-10-19T07:17:46;13.60;;;12.07;;
12871;SDS011;6504;53.766;9.626;2023-10-19T07:20:14;15.73;;;13.07;;
12871;SDS011;6504;53.766;9.626;2023-10-19T07:22:52;14.80;;;12.83;;
12871;SDS011;6504;53.766;9.626;2023-10-19T07:25:20;17.37;;;13.30;;
12871;SDS011;6504;53.766;9.626;2023-10-19T07:27:49;15.27;;;12.77;;
12871;SDS011;6504;53.766;9.626;2023-10-19T07:30:20;14.43;;;12.90;;
12871;SDS011;6504;53.766;9.626;2023-10-19T07:32:53;14.80;;;12.63;;
12871;SDS011;6504;53.766;9.626;2023-10-19T07:35:26;15.07;;;12.70;;
12871;SDS011;6504;53.766;9.626;2023-10-19T07:38:00;16.60;;;13.30;;
12871;SDS011;6504;53.766;9.626;2023-10-19T07:40:30;14.67;;;12.87;;
12871;SDS011;6504;53.766;9.626;2023-10-19T07:42:58;14.63;;;13.00;;
12871;SDS011;6504;53.766;9.626;2023-10-19T07:45:28;15.87;;;13.67;;
12871;SDS011;6504;53.766;9.626;2023-10-19T07:47:57;15.07;;;13.47;;
12871;SDS011;6504;53.766;9.626;2023-10-19T07:50:33;15.43;;;13.53;;
12871;SDS011;6504;53.766;9.626;2023-10-19T07:53:01;15.00;;;13.43;;
12871;SDS011;6504;53.766;9.626;2023-10-19T07:55:30;16.40;;;13.57;;
12871;SDS011;6504;53.766;9.626;2023-10-19T07:57:59;14.63;;;13.00;;
12871;SDS011;6504;53.766;9.626;2023-10-19T08:00:30;15.40;;;13.73;;
12871;SDS011;6504;53.766;9.626;2023-10-19T08:03:00;14.70;;;13.17;;
12871;SDS011;6504;53.766;9.626;2023-10-19T08:05:29;17.00;;;13.23;;
12871;SDS011;6504;53.766;9.626;2023-10-19T08:07:58;14.73;;;13.27;;
12871;SDS011;6504;53.766;9.626;2023-10-19T08:10:27;15.53;;;13.13;;
12871;SDS011;6504;53.766;9.626;2023-10-19T08:12:55;15.17;;;13.57;;
12871;SDS011;6504;53.766;9.626;2023-10-19T08:15:25;14.70;;;13.13;;
12871;SDS011;6504;53.766;9.626;2023-10-19T08:17:56;15.03;;;12.90;;
12871;SDS011;6504;53.766;9.626;2023-10-19T08:20:25;18.20;;;13.80;;
12871;SDS011;6504;53.766;9.626;2023-10-19T08:22:58;17.00;;;14.07;;
12871;SDS011;6504;53.766;9.626;2023-10-19T08:25:28;16.93;;;12.90;;
12871;SDS011;6504;53.766;9.626;2023-10-19T08:27:59;16.03;;;14.10;;
12871;SDS011;6504;53.766;9.626;2023-10-19T08:30:28;16.00;;;13.87;;
12871;SDS011;6504;53.766;9.626;2023-10-19T08:32:58;15.03;;;13.37;;
12871;SDS011;6504;53.766;9.626;2023-10-19T08:35:26;16.63;;;14.03;;
12871;SDS011;6504;53.766;9.626;2023-10-19T08:37:54;15.80;;;13.93;;
12871;SDS011;6504;53.766;9.626;2023-10-19T08:40:24;16.03;;;14.37;;
12871;SDS011;6504;53.766;9.626;2023-10-19T08:42:54;16.80;;;15.10;;
12871;SDS011;6504;53.766;9.626;2023-10-19T08:45:23;15.83;;;14.13;;
12871;SDS011;6504;53.766;9.626;2023-10-19T08:47:53;15.70;;;13.70;;
12871;SDS011;6504;53.766;9.626;2023-10-19T08:50:25;15.10;;;13.57;;
12871;SDS011;6504;53.766;9.626;2023-10-19T08:52:56;18.30;;;15.43;;
12871;SDS011;6504;53.766;9.626;2023-10-19T08:55:25;17.53;;;14.90;;
12871;SDS011;6504;53.766;9.626;2023-10-19T08:57:57;16.20;;;14.57;;
12871;SDS011;6504;53.766;9.626;2023-10-19T09:00:26;17.57;;;14.40;;
12871;SDS011;6504;53.766;9.626;2023-10-19T09:03:00;16.93;;;15.07;;
12871;SDS011;6504;53.766;9.626;2023-10-19T09:05:33;18.37;;;14.87;;
12871;SDS011;6504;53.766;9.626;2023-10-19T09:08:01;16.37;;;14.67;;
12871;SDS011;6504;53.766;9.626;2023-10-19T09:10:32;16.93;;;15.13;;
12871;SDS011;6504;53.766;9.626;2023-10-19T09:13:03;17.23;;;15.43;;
12871;SDS011;6504;53.766;9.626;2023-10-19T09:15:35;18.93;;;15.73;;
12871;SDS011;6504;53.766;9.626;2023-10-19T09:18:14;20.07;;;15.63;;
12871;SDS011;6504;53.766;9.626;2023-10-19T09:20:44;16.43;;;14.73;;
12871;SDS011;6504;53.766;9.626;2023-10-19T09:23:20;16.53;;;14.83;;
12871;SDS011;6504;53.766;9.626;2023-10-19T09:25:48;16.47;;;14.57;;
12871;SDS011;6504;53.766;9.626;2023-10-19T09:28:19;19.20;;;15.40;;
12871;SDS011;6504;53.766;9.626;2023-10-19T09:30:48;17.60;;;15.73;;
12871;SDS011;6504;53.766;9.626;2023-10-19T09:33:17;15.60;;;14.00;;
12871;SDS011;6504;53.766;9.626;2023-10-19T09:35:50;17.47;;;14.93;;
12871;SDS011;6504;53.766;9.626;2023-10-19T09:38:19;19.50;;;16.00;;
12871;SDS011;6504;53.766;9.626;2023-10-19T09:40:48;16.57;;;14.87;;
12871;SDS011;6504;53.766;9.626;2023-10-19T09:43:20;17.53;;;15.47;;
12871;SDS011;6504;53.766;9.626;2023-10-19T09:45:53;16.87;;;15.17;;
12871;SDS011;6504;53.766;9.626;2023-10-19T09:48:27;18.07;;;16.13;;
12871;SDS011;6504;53.766;9.626;2023-10-19T09:50:57;16.97;;;15.23;;
12871;SDS011;6504;53.766;9.626;2023-10-19T09:53:25;17.00;;;15.30;;
12871;SDS011;6504;53.766;9.626;2023-10-19T09:55:56;17.13;;;15.40;;
12871;SDS011;6504;53.766;9.626;2023-10-19T09:58:27;17.60;;;14.90;;
12871;SDS011;6504;53.766;9.626;2023-10-19T10:01:01;16.43;;;14.73;;
12871;SDS011;6504;53.766;9.626;2023-10-19T10:03:43;17.33;;;15.33;;
12871;SDS011;6504;53.766;9.626;2023-10-19T10:06:14;16.77;;;14.70;;
12871;SDS011;6504;53.766;9.626;2023-10-19T10:08:47;16.60;;;14.80;;
12871;SDS011;6504;53.766;9.626;2023-10-19T10:11:20;16.70;;;14.97;;
12871;SDS011;6504;53.766;9.626;2023-10-19T10:13:50;16.77;;;15.07;;
12871;SDS011;6504;53.766;9.626;2023-10-19T10:16:19;16.47;;;14.87;;
12871;SDS011;6504;53.766;9.626;2023-10-19T10:18:50;15.83;;;14.17;;
12871;SDS011;6504;53.766;9.626;2023-10-19T10:21:23;17.30;;;15.13;;
12871;SDS011;6504;53.766;9.626;2023-10-19T10:23:52;16.63;;;14.93;;
12871;SDS011;6504;53.766;9.626;2023-10-19T10:26:22;17.43;;;15.17;;
12871;SDS011;6504;53.766;9.626;2023-10-19T10:29:07;16.53;;;14.77;;
12871;SDS011;6504;53.766;9.626;2023-10-19T10:31:41;15.87;;;14.27;;
12871;SDS011;6504;53.766;9.626;2023-10-19T10:34:10;17.60;;;15.10;;
12871;SDS011;6504;53.766;9.626;2023-10-19T10:36:59;15.67;;;13.93;;
12871;SDS011;6504;53.766;9.626;2023-10-19T10:39:29;17.00;;;14.87;;
12871;SDS011;6504;53.766;9.626;2023-10-19T10:41:58;15.97;;;14.20;;
12871;SDS011;6504;53.766;9.626;2023-10-19T10:44:36;16.63;;;15.00;;
12871;SDS011;6504;53.766;9.626;2023-10-19T10:47:06;17.73;;;15.80;;
12871;SDS011;6504;53.766;9.626;2023-10-19T10:49:46;18.70;;;15.67;;
12871;SDS011;6504;53.766;9.626;2023-10-19T10:52:24;17.90;;;16.07;;
12871;SDS011;6504;53.766;9.626;2023-10-19T10:54:56;16.73;;;15.03;;
12871;SDS011;6504;53.766;9.626;2023-10-19T10:57:30;16.03;;;14.40;;
12871;SDS011;6504;53.766;9.626;2023-10-19T11:00:07;16.13;;;14.60;;
12871;SDS011;6504;53.766;9.626;2023-10-19T11:02:42;16.60;;;15.00;;
12871;SDS011;6504;53.766;9.626;2023-10-19T11:05:13;15.77;;;14.17;;
12871;SDS011;6504;53.766;9.626;2023-10-19T11:08:02;20.73;;;18.53;;
12871;SDS011;6504;53.766;9.626;2023-10-19T11:10:33;17.57;;;15.80;;
12871;SDS011;6504;53.766;9.626;2023-10-19T11:13:02;16.67;;;15.03;;
12871;SDS011;6504;53.766;9.626;2023-10-19T11:15:32;16.53;;;14.83;;
12871;SDS011;6504;53.766;9.626;2023-10-19T11:18:00;17.30;;;15.60;;
12871;SDS011;6504;53.766;9.626;2023-10-19T11:20:29;15.73;;;14.13;;
12871;SDS011;6504;53.766;9.626;2023-10-19T11:22:58;16.87;;;15.10;;
12871;SDS011;6504;53.766;9.626;2023-10-19T11:25:28;15.90;;;14.27;;
12871;SDS011;6504;53.766;9.626;2023-10-19T11:27:58;15.30;;;13.87;;
12871;SDS011;6504;53.766;9.626;2023-10-19T11:30:31;15.03;;;13.53;;
12871;SDS011;6504;53.766;9.626;2023-10-19T11:33:00;16.00;;;14.30;;
12871;SDS011;6504;53.766;9.626;2023-10-19T11:35:29;16.20;;;14.10;;
12871;SDS011;6504;53.766;9.626;2023-10-19T11:38:00;14.80;;;13.40;;
12871;SDS011;6504;53.766;9.626;2023-10-19T11:40:30;15.43;;;13.93;;
12871;SDS011;6504;53.766;9.626;2023-10-19T11:42:58;15.43;;;13.83;;
12871;SDS011;6504;53.766;9.626;2023-10-19T11:45:27;16.10;;;14.50;;
12871;SDS011;6504;53.766;9.626;2023-10-19T11:47:55;16.73;;;14.93;;
12871;SDS011;6504;53.766;9.626;2023-10-19T11:50:24;16.07;;;14.47;;
12871;SDS011;6504;53.766;9.626;2023-10-19T11:52:52;15.50;;;14.00;;
12871;SDS011;6504;53.766;9.626;2023-10-19T11:55:21;14.47;;;13.07;;
12871;SDS011;6504;53.766;9.626;2023-10-19T11:57:49;15.87;;;14.37;;
12871;SDS011;6504;53.766;9.626;2023-10-19T12:00:17;14.17;;;12.87;;
12871;SDS011;6504;53.766;9.626;2023-10-19T12:02:48;15.70;;;14.20;;
12871;SDS011;6504;53.766;9.626;2023-10-19T12:05:18;15.93;;;13.70;;
12871;SDS011;6504;53.766;9.626;2023-10-19T12:07:46;15.83;;;14.23;;
12871;SDS011;6504;53.766;9.626;2023-10-19T12:10:16;16.47;;;14.43;;
12871;SDS011;6504;53.766;9.626;2023-10-19T12:12:47;14.77;;;13.37;;
12871;SDS011;6504;53.766;9.626;2023-10-19T12:15:27;14.73;;;12.83;;
12871;SDS011;6504;53.766;9.626;2023-10-19T12:17:57;15.07;;;13.53;;
12871;SDS011;6504;53.766;9.626;2023-10-19T12:20:26;14.87;;;13.37;;
12871;SDS011;6504;53.766;9.626;2023-10-19T12:22:54;17.60;;;15.77;;
12871;SDS011;6504;53.766;9.626;2023-10-19T12:25:22;17.47;;;15.67;;
12871;SDS011;6504;53.766;9.626;2023-10-19T12:28:03;15.83;;;14.23;;
12871;SDS011;6504;53.766;9.626;2023-10-19T12:30:32;15.50;;;13.90;;
12871;SDS011;6504;53.766;9.626;2023-10-19T12:33:03;16.00;;;14.23;;
12871;SDS011;6504;53.766;9.626;2023-10-19T12:35:34;15.63;;;14.03;;
12871;SDS011;6504;53.766;9.626;2023-10-19T12:38:16;15.87;;;14.27;;
12871;SDS011;6504;53.766;9.626;2023-10-19T12:40:46;15.37;;;13.30;;
12871;SDS011;6504;53.766;9.626;2023-10-19T12:43:18;16.40;;;14.70;;
12871;SDS011;6504;53.766;9.626;2023-10-19T12:45:48;16.23;;;14.53;;
12871;SDS011;6504;53.766;9.626;2023-10-19T12:48:21;17.03;;;15.17;;
12871;SDS011;6504;53.766;9.626;2023-10-19T12:50:52;16.23;;;14.60;;
12871;SDS011;6504;53.766;9.626;2023-10-19T12:53:20;15.93;;;14.33;;
12871;SDS011;6504;53.766;9.626;2023-10-19T12:55:51;16.90;;;15.20;;
12871;SDS011;6504;53.766;9.626;2023-10-19T12:58:21;16.90;;;14.93;;
12871;SDS011;6504;53.766;9.626;2023-10-19T13:00:49;16.13;;;14.53;;
12871;SDS011;6504;53.766;9.626;2023-10-19T13:03:18;17.70;;;15.80;;
12871;SDS011;6504;53.766;9.626;2023-10-19T13:05:46;16.80;;;15.00;;
12871;SDS011;6504;53.766;9.626;2023-10-19T13:08:16;17.03;;;15.33;;
12871;SDS011;6504;53.766;9.626;2023-10-19T13:10:47;17.33;;;15.53;;
12871;SDS011;6504;53.766;9.626;2023-10-19T13:13:18;16.47;;;14.77;;
12871;SDS011;6504;53.766;9.626;2023-10-19T13:15:50;16.43;;;14.73;;
12871;SDS011;6504;53.766;9.626;2023-10-19T13:18:20;16.90;;;15.07;;
12871;SDS011;6504;53.766;9.626;2023-10-19T13:20:54;18.23;;;15.80;;
12871;SDS011;6504;53.766;9.626;2023-10-19T13:23:23;18.33;;;16.37;;
12871;SDS011;6504;53.766;9.626;2023-10-19T13:25:51;18.63;;;16.70;;
12871;SDS011;6504;53.766;9.626;2023-10-19T13:28:22;18.23;;;16.43;;
12871;SDS011;6504;53.766;9.626;2023-10-19T13:30:51;18.57;;;16.60;;
12871;SDS011;6504;53.766;9.626;2023-10-19T13:33:20;17.50;;;15.67;;
12871;SDS011;6504;53.766;9.626;2023-10-19T13:35:50;16.90;;;14.93;;
12871;SDS011;6504;53.766;9.626;2023-10-19T13:38:18;18.87;;;16.87;;
12871;SDS011;6504;53.766;9.626;2023-10-19T13:40:47;17.13;;;15.43;;
12871;SDS011;6504;53.766;9.626;2023-10-19T13:43:16;17.83;;;15.93;;
12871;SDS011;6504;53.766;9.626;2023-10-19T13:45:49;17.90;;;16.10;;
12871;SDS011;6504;53.766;9.626;2023-10-19T13:48:19;18.53;;;16.57;;
12871;SDS011;6504;53.766;9.626;2023-10-19T13:50:48;17.03;;;15.37;;
12871;SDS011;6504;53.766;9.626;2023-10-19T13:53:16;17.83;;;15.97;;
12871;SDS011;6504;53.766;9.626;2023-10-19T13:55:45;19.00;;;17.00;;
12871;SDS011;6504;53.766;9.626;2023-10-19T13:58:13;18.50;;;16.60;;
12871;SDS011;6504;53.766;9.626;2023-10-19T14:00:42;18.20;;;16.03;;
12871;SDS011;6504;53.766;9.626;2023-10-19T14:03:12;17.57;;;15.77;;
12871;SDS011;6504;53.766;9.626;2023-10-19T14:05:42;19.70;;;16.37;;
12871;SDS011;6504;53.766;9.626;2023-10-19T14:08:14;18.30;;;16.43;;
12871;SDS011;6504;53.766;9.626;2023-10-19T14:10:44;18.27;;;16.27;;
12871;SDS011;6504;53.766;9.626;2023-10-19T14:13:13;17.90;;;16.00;;
12871;SDS011;6504;53.766;9.626;2023-10-19T14:15:42;17.47;;;15.63;;
12871;SDS011;6504;53.766;9.626;2023-10-19T14:18:10;22.07;;;16.00;;
12871;SDS011;6504;53.766;9.626;2023-10-19T14:20:40;18.13;;;16.30;;
12871;SDS011;6504;53.766;9.626;2023-10-19T14:23:08;17.67;;;15.83;;
12871;SDS011;6504;53.766;9.626;2023-10-19T14:25:37;17.63;;;15.37;;
12871;SDS011;6504;53.766;9.626;2023-10-19T14:28:07;17.13;;;15.27;;
12871;SDS011;6504;53.766;9.626;2023-10-19T14:30:36;17.90;;;15.83;;
12871;SDS011;6504;53.766;9.626;2023-10-19T14:33:04;16.67;;;14.97;;
12871;SDS011;6504;53.766;9.626;2023-10-19T14:35:38;16.83;;;14.87;;
12871;SDS011;6504;53.766;9.626;2023-10-19T14:38:09;15.80;;;14.20;;
12871;SDS011;6504;53.766;9.626;2023-10-19T14:40:40;17.13;;;15.43;;
12871;SDS011;6504;53.766;9.626;2023-10-19T14:43:11;16.73;;;14.73;;
12871;SDS011;6504;53.766;9.626;2023-10-19T14:45:40;17.57;;;15.77;;
12871;SDS011;6504;53.766;9.626;2023-10-19T14:48:09;16.53;;;14.67;;
12871;SDS011;6504;53.766;9.626;2023-10-19T14:50:37;17.40;;;15.07;;
12871;SDS011;6504;53.766;9.626;2023-10-19T14:53:08;19.73;;;16.20;;
12871;SDS011;6504;53.766;9.626;2023-10-19T14:55:37;18.60;;;16.03;;
12871;SDS011;6504;53.766;9.626;2023-10-19T14:58:05;17.80;;;15.83;;
12871;SDS011;6504;53.766;9.626;2023-10-19T15:00:33;17.03;;;15.27;;